Time;durP1;ratioP1;P1;durP2;ratioP2;P2;SDS_P1;SDS_P2;PMS_P1;PMS_P2;Temp;Humidity;BMP_temperature;BMP_pressure;BME280_temperature;BME280_humidity;BME280_pressure;Samples;Min_cycle;Max_cycle;Signal;HPM_P1;HPM_P2
2022/06/26 00:06:01;;;;;;;4.45;1.67;;;;;;;20.71;98.52;100081.69;21068000;28;20463;-67
2022/06/26 00:16:03;;;;;;;6.57;1.85;;;;;;;20.75;98.64;100099.19;21067795;28;20481;-67
2022/06/26 00:26:05;;;;;;;3.15;1.77;;;;;;;20.84;99.51;100144.75;21066959;28;20044;-68
2022/06/26 00:36:07;;;;;;;7.75;2.20;;;;;;;20.50;100.00;100157.47;21066585;28;20495;-68
2022/06/26 00:46:08;;;;;;;4.43;1.85;;;;;;;19.82;100.00;100149.13;21066154;28;20510;-67
2022/06/26 00:56:10;;;;;;;3.55;1.33;;;;;;;19.53;100.00;100148.94;21064582;28;20052;-68
2022/06/26 01:06:12;;;;;;;4.55;1.55;;;;;;;19.40;100.00;100147.94;21064792;28;20044;-68
2022/06/26 01:16:14;;;;;;;3.53;1.50;;;;;;;19.22;100.00;100134.75;21064912;28;20056;-70
2022/06/26 01:26:17;;;;;;;4.13;1.30;;;;;;;18.96;100.00;100127.38;21064443;28;20060;-68
2022/06/26 01:36:19;;;;;;;3.90;1.50;;;;;;;18.81;100.00;100130.84;21063447;28;20106;-68
2022/06/26 01:46:23;;;;;;;2.05;1.33;;;;;;;18.90;100.00;100117.09;21063739;28;20052;-68
2022/06/26 01:56:24;;;;;;;1.77;1.20;;;;;;;18.95;100.00;100115.03;21125976;28;20094;-68
2022/06/26 02:06:27;;;;;;;3.78;1.50;;;;;;;18.84;100.00;100101.53;21152856;28;20070;-67
2022/06/26 02:16:28;;;;;;;4.53;1.40;;;;;;;18.77;100.00;100108.09;21160339;28;20080;-67
2022/06/26 02:26:30;;;;;;;3.17;1.50;;;;;;;18.67;100.00;100100.59;21160432;28;20043;-68
2022/06/26 02:36:31;;;;;;;2.58;1.30;;;;;;;18.52;100.00;100096.13;21159014;28;20051;-68
2022/06/26 02:46:33;;;;;;;3.17;1.30;;;;;;;18.46;100.00;100133.56;21158783;28;20047;-67
2022/06/26 02:56:35;;;;;;;2.75;1.23;;;;;;;18.13;100.00;100093.78;21158501;28;20047;-67
2022/06/26 03:06:37;;;;;;;2.47;1.25;;;;;;;18.06;100.00;100109.13;21156752;28;20043;-68
2022/06/26 03:16:38;;;;;;;6.47;1.70;;;;;;;17.80;100.00;100113.09;21157015;28;20097;-68
2022/06/26 03:26:40;;;;;;;7.38;2.20;;;;;;;17.62;100.00;100135.16;21155933;28;20047;-68
2022/06/26 03:36:41;;;;;;;3.40;1.63;;;;;;;17.61;100.00;100144.88;21154796;28;20052;-67
2022/06/26 03:46:43;;;;;;;4.60;1.98;;;;;;;17.70;100.00;100143.59;21154143;28;20052;-68
2022/06/26 03:56:45;;;;;;;4.45;1.85;;;;;;;17.67;100.00;100168.41;21153902;28;20399;-67
2022/06/26 04:06:47;;;;;;;3.58;2.00;;;;;;;17.55;100.00;100145.19;21152654;28;20047;-67
2022/06/26 04:16:48;;;;;;;3.25;1.90;;;;;;;17.57;100.00;100140.66;21151351;28;20063;-68
2022/06/26 04:26:50;;;;;;;4.60;2.00;;;;;;;17.59;100.00;100148.56;21150122;28;20142;-71
2022/06/26 04:36:51;;;;;;;5.22;2.08;;;;;;;18.96;100.00;100138.81;21149482;28;20043;-70
2022/06/26 04:46:53;;;;;;;4.63;1.80;;;;;;;20.74;100.00;100156.00;21069438;28;20118;-71
2022/06/26 04:56:54;;;;;;;5.05;1.40;;;;;;;20.11;100.00;100181.97;21065647;28;20055;-72
2022/06/26 05:06:56;;;;;;;3.67;1.40;;;;;;;19.19;100.00;100187.16;21064404;28;20048;-71
2022/06/26 05:16:57;;;;;;;2.42;1.30;;;;;;;19.17;100.00;100213.78;21064006;28;20064;-70
2022/06/26 05:26:59;;;;;;;5.28;1.52;;;;;;;19.19;100.00;100203.94;21064066;28;20074;-70
2022/06/26 05:37:01;;;;;;;3.97;1.20;;;;;;;19.54;100.00;100218.84;21064666;28;20423;-71
2022/06/26 05:47:04;;;;;;;2.85;1.33;;;;;;;19.81;100.00;100211.19;21079337;28;20040;-71
2022/06/26 05:57:12;;;;;;;1.65;0.90;;;;;;;20.12;100.00;100205.81;21078410;28;20048;-70
2022/06/26 06:07:13;;;;;;;3.25;1.08;;;;;;;20.07;100.00;100213.16;21077498;28;20048;-67
2022/06/26 06:27:36;;;;;;;2.72;1.10;;;;;;;20.41;100.00;100233.34;21074696;28;20074;-67
2022/06/26 06:37:38;;;;;;;3.58;1.33;;;;;;;20.68;100.00;100245.97;21071372;28;20460;-68
2022/06/26 06:47:40;;;;;;;2.83;1.13;;;;;;;20.97;100.00;100230.88;21073928;28;20040;-68
2022/06/26 06:57:41;;;;;;;3.38;1.55;;;;;;;21.05;100.00;100263.22;21067619;28;20079;-67
2022/06/26 07:07:43;;;;;;;4.35;1.05;;;;;;;21.47;100.00;100273.06;21060504;28;20036;-68
2022/06/26 07:17:44;;;;;;;3.33;1.40;;;;;;;21.30;100.00;100262.56;21063113;28;20048;-67
2022/06/26 07:27:46;;;;;;;2.55;1.17;;;;;;;21.31;98.11;100261.63;21061611;28;20048;-67
2022/06/26 07:37:47;;;;;;;1.67;1.00;;;;;;;21.68;94.45;100260.16;21061548;28;20504;-67
2022/06/26 07:47:49;;;;;;;2.47;0.80;;;;;;;21.76;92.15;100257.88;21061812;28;20056;-67
2022/06/26 07:57:50;;;;;;;1.95;0.90;;;;;;;22.33;89.03;100248.00;21060954;28;20048;-67
2022/06/26 08:07:52;;;;;;;3.15;0.95;;;;;;;22.03;92.55;100255.22;21059926;28;20048;-67
2022/06/26 08:17:54;;;;;;;3.67;1.10;;;;;;;22.27;89.29;100273.25;21057379;28;20393;-67
2022/06/26 08:27:56;;;;;;;1.88;1.05;;;;;;;22.42;90.41;100271.38;21055724;28;20420;-69
2022/06/26 08:37:57;;;;;;;2.28;0.98;;;;;;;23.08;86.70;100262.41;21056727;28;20059;-68
2022/06/26 08:48:00;;;;;;;2.25;1.02;;;;;;;22.32;90.47;100280.94;21055699;28;20048;-68
2022/06/26 08:58:02;;;;;;;4.63;1.10;;;;;;;23.01;89.95;100256.66;21056730;28;20135;-68
2022/06/26 09:08:04;;;;;;;3.42;1.02;;;;;;;24.02;78.77;100252.09;21056843;28;20121;-68
2022/06/26 09:18:08;;;;;;;2.60;1.00;;;;;;;23.96;77.59;100263.25;21068349;28;20082;-68
2022/06/26 09:28:18;;;;;;;2.47;1.10;;;;;;;23.96;80.06;100270.41;21073779;28;20492;-68
2022/06/26 09:38:22;;;;;;;3.22;1.10;;;;;;;24.65;74.16;100258.06;21070983;28;20493;-69
2022/06/26 09:48:24;;;;;;;2.80;0.93;;;;;;;24.85;76.05;100261.03;21152830;28;20046;-69
2022/06/26 09:58:26;;;;;;;2.25;1.20;;;;;;;25.23;72.27;100266.97;21155271;28;20104;-69
2022/06/26 10:08:29;;;;;;;2.78;1.10;;;;;;;25.11;70.03;100254.53;21153710;28;20043;-69
2022/06/26 10:18:39;;;;;;;1.43;0.90;;;;;;;25.35;68.65;100254.44;21077278;28;20462;-69
2022/06/26 10:29:03;;;;;;;3.90;1.17;;;;;;;25.02;71.67;100241.84;21067864;28;20052;-69
2022/06/26 10:39:06;;;;;;;2.93;1.10;;;;;;;25.26;66.02;100245.28;21066322;28;20117;-68
2022/06/26 10:49:08;;;;;;;1.67;1.02;;;;;;;25.54;67.89;100235.03;21066010;28;20306;-69
2022/06/26 10:59:09;;;;;;;3.15;1.20;;;;;;;25.93;68.35;100235.47;21064989;28;20448;-68
2022/06/26 11:09:11;;;;;;;3.05;1.15;;;;;;;26.63;62.20;100237.63;21064303;28;20105;-68
2022/06/26 11:19:23;;;;;;;5.40;1.50;;;;;;;26.34;65.36;100216.75;21064561;28;20059;-71
2022/06/26 11:29:24;;;;;;;12.95;2.08;;;;;;;26.68;62.00;100207.69;21063962;28;20047;-69
2022/06/26 11:39:41;;;;;;;1.42;0.80;;;;;;;25.80;60.28;100220.38;21062211;28;20086;-70
2022/06/26 11:49:43;;;;;;;2.33;0.90;;;;;;;25.82;65.90;100213.06;21062772;28;20143;-70
2022/06/26 11:59:45;;;;;;;2.00;1.20;;;;;;;26.40;66.55;100219.88;21061161;28;20063;-70
2022/06/26 12:09:46;;;;;;;2.17;1.38;;;;;;;26.46;65.04;100206.00;21059931;28;20102;-70
2022/06/26 12:19:48;;;;;;;2.15;1.30;;;;;;;26.96;65.20;100193.56;21059969;28;20056;-71
2022/06/26 12:29:49;;;;;;;1.75;1.10;;;;;;;26.94;56.90;100192.00;21059586;28;20052;-67
2022/06/26 12:39:51;;;;;;;3.33;1.10;;;;;;;26.35;59.86;100180.03;21058622;28;20424;-71
2022/06/26 12:49:52;;;;;;;1.70;0.95;;;;;;;26.93;59.89;100171.50;21057448;28;20170;-70
2022/06/26 12:59:57;;;;;;;2.10;1.10;;;;;;;27.00;57.71;100169.97;21055776;28;20079;-70
2022/06/26 13:09:58;;;;;;;3.50;1.33;;;;;;;27.25;60.55;100164.13;21057735;28;20097;-71
2022/06/26 13:20:00;;;;;;;3.38;1.20;;;;;;;27.38;56.59;100146.91;21057000;28;20048;-70
2022/06/26 13:30:01;;;;;;;3.03;1.10;;;;;;;27.28;59.17;100145.06;21056799;28;20052;-70
2022/06/26 13:40:03;;;;;;;4.47;1.00;;;;;;;27.70;55.53;100131.41;21056285;28;20145;-70
2022/06/26 13:50:05;;;;;;;2.83;1.05;;;;;;;27.86;52.49;100131.72;21056492;28;20616;-70
2022/06/26 14:00:07;;;;;;;1.67;0.98;;;;;;;27.09;57.31;100113.59;21058002;28;20512;-70
2022/06/26 14:10:09;;;;;;;4.05;1.00;;;;;;;27.36;54.87;100118.34;21070256;28;20056;-70
2022/06/26 14:20:11;;;;;;;1.73;0.90;;;;;;;26.59;55.93;100107.31;21068793;28;20048;-70
2022/06/26 14:30:13;;;;;;;2.33;1.10;;;;;;;27.06;56.85;100088.78;21068955;28;20040;-70
2022/06/26 14:40:15;;;;;;;1.77;0.90;;;;;;;27.25;50.45;100086.19;21067336;28;20055;-70
2022/06/26 14:50:16;;;;;;;1.83;1.00;;;;;;;26.93;49.08;100077.47;21066119;28;20542;-67
2022/06/26 15:00:17;;;;;;;4.07;1.10;;;;;;;27.56;48.38;100048.44;21066531;28;20052;-67
2022/06/26 15:10:19;;;;;;;1.98;0.93;;;;;;;27.60;48.40;100039.09;21064472;28;20047;-67
2022/06/26 15:20:21;;;;;;;1.75;0.80;;;;;;;27.79;47.00;100049.03;21064127;28;20054;-67
2022/06/26 15:30:25;;;;;;;1.83;0.80;;;;;;;28.17;46.86;100037.34;21063343;28;20048;-68
2022/06/26 15:40:27;;;;;;;3.63;0.90;;;;;;;28.00;45.78;100025.47;21099992;28;20047;-66
2022/06/26 15:50:28;;;;;;;2.42;1.00;;;;;;;27.74;47.50;100016.28;21146311;28;20117;-66
2022/06/26 16:00:30;;;;;;;2.58;0.82;;;;;;;27.29;49.96;100006.94;21145286;28;20054;-67
2022/06/26 16:10:32;;;;;;;2.05;0.90;;;;;;;27.81;48.58;99998.59;21057259;28;20048;-67
2022/06/26 16:20:33;;;;;;;2.28;1.10;;;;;;;28.04;49.56;99982.97;21060520;28;20047;-67
2022/06/26 16:30:35;;;;;;;2.38;1.27;;;;;;;27.36;49.19;99977.69;21056792;28;20040;-67
2022/06/26 16:40:36;;;;;;;2.25;0.95;;;;;;;27.27;53.85;99976.69;21054961;28;20059;-67
2022/06/26 16:50:38;;;;;;;3.47;1.00;;;;;;;27.66;51.56;99947.06;21095248;28;20090;-67
2022/06/26 17:00:43;;;;;;;3.30;1.20;;;;;;;27.46;52.10;99946.25;21095082;28;20134;-67
2022/06/26 17:10:45;;;;;;;1.77;1.00;;;;;;;27.02;53.23;99953.88;21043616;28;20056;-67
2022/06/26 17:20:46;;;;;;;2.10;1.00;;;;;;;26.91;56.91;99942.41;21055072;28;20052;-67
2022/06/26 17:30:48;;;;;;;3.92;1.38;;;;;;;27.15;56.00;99950.91;21055475;28;20056;-67
2022/06/26 17:40:50;;;;;;;2.95;1.40;;;;;;;26.23;59.77;99951.09;21122563;28;20048;-67
2022/06/26 17:50:52;;;;;;;3.03;1.00;;;;;;;26.04;62.39;99934.94;21077519;28;20159;-67
2022/06/26 18:00:53;;;;;;;3.83;1.10;;;;;;;26.06;62.64;99922.22;21071833;28;20078;-67
2022/06/26 18:11:00;;;;;;;4.50;1.58;;;;;;;25.72;65.52;99918.91;21139774;28;20044;-67
2022/06/26 18:21:02;;;;;;;3.30;1.40;;;;;;;25.61;67.08;99922.53;21068227;28;20055;-67
2022/06/26 18:31:04;;;;;;;3.17;1.50;;;;;;;24.89;68.35;99911.66;21141059;28;20431;-67
2022/06/26 18:41:05;;;;;;;2.78;1.35;;;;;;;24.49;72.43;99917.63;21111328;28;20091;-67
2022/06/26 18:51:07;;;;;;;4.93;1.52;;;;;;;24.34;74.74;99895.63;21071085;28;20040;-67
2022/06/26 19:01:09;;;;;;;3.70;1.90;;;;;;;23.96;78.22;99893.34;21149316;28;20055;-67
2022/06/26 19:21:31;;;;;;;3.95;1.63;;;;;;;23.42;81.34;99872.59;21058191;28;20055;-66
2022/06/26 19:31:34;;;;;;;3.22;1.60;;;;;;;23.03;84.52;99862.16;21062135;28;20047;-67
2022/06/26 19:41:36;;;;;;;2.70;1.50;;;;;;;22.97;85.63;99832.44;21062047;28;20474;-66
2022/06/26 19:51:37;;;;;;;2.15;1.40;;;;;;;22.84;87.15;99855.66;21061197;28;20044;-67
2022/06/26 20:01:38;;;;;;;2.63;1.60;;;;;;;22.64;88.57;99812.63;21097948;28;20047;-67
2022/06/26 20:11:40;;;;;;;3.58;1.70;;;;;;;22.40;90.44;99798.44;21098377;28;20340;-66
2022/06/26 20:21:42;;;;;;;5.40;1.80;;;;;;;22.33;91.19;99797.22;21060496;28;20052;-67
2022/06/26 20:31:44;;;;;;;4.13;1.70;;;;;;;22.23;91.72;99811.22;21056336;28;20047;-67
2022/06/26 20:41:46;;;;;;;2.80;1.60;;;;;;;22.21;91.63;99846.97;21058604;28;20051;-66
2022/06/26 20:51:47;;;;;;;4.57;1.70;;;;;;;21.67;98.10;99824.13;21058024;28;20097;-67
2022/06/26 21:01:50;;;;;;;3.90;2.00;;;;;;;21.25;100.00;99890.03;21057246;28;20047;-67
2022/06/26 21:11:52;;;;;;;5.13;2.47;;;;;;;20.81;100.00;99959.56;21064272;28;20052;-67
2022/06/26 21:21:54;;;;;;;5.55;3.13;;;;;;;20.38;100.00;100066.00;21073749;28;20052;-69
2022/06/26 21:31:58;;;;;;;7.38;2.88;;;;;;;19.70;100.00;100024.03;21073192;28;20488;-71
2022/06/26 21:41:59;;;;;;;6.28;2.70;;;;;;;19.57;100.00;100094.72;21070971;28;20409;-69
2022/06/26 21:52:01;;;;;;;4.90;3.05;;;;;;;18.79;100.00;100016.03;21072016;28;20121;-74
2022/06/26 22:02:03;;;;;;;10.27;4.80;;;;;;;18.80;100.00;100042.47;21069784;28;20086;-69
2022/06/26 22:12:05;;;;;;;8.23;4.70;;;;;;;18.15;100.00;99877.25;21082641;28;20412;-76
2022/06/26 22:22:07;;;;;;;9.25;5.43;;;;;;;18.35;100.00;100066.97;21078406;28;20055;-73
2022/06/26 22:32:08;;;;;;;9.88;5.03;;;;;;;17.99;100.00;100065.34;21075757;28;20055;-74
2022/06/26 22:42:11;;;;;;;16.73;7.25;;;;;;;17.58;100.00;100035.63;21087123;28;20064;-80
2022/06/26 22:52:12;;;;;;;11.73;8.30;;;;;;;17.64;100.00;100041.50;21089413;28;20098;-78
2022/06/26 23:02:14;;;;;;;18.15;7.10;;;;;;;17.88;100.00;100299.00;21076603;28;20044;-77
2022/06/26 23:12:18;;;;;;;8.30;3.88;;;;;;;17.84;100.00;100270.06;21079395;28;20060;-80
2022/06/26 23:22:20;;;;;;;6.68;3.03;;;;;;;17.65;100.00;100212.66;21096615;28;20048;-76
2022/06/26 23:32:21;;;;;;;6.50;3.17;;;;;;;17.48;100.00;100151.69;21093204;28;20097;-79
2022/06/26 23:42:23;;;;;;;4.40;3.08;;;;;;;17.69;100.00;100174.50;21079657;28;20048;-79
2022/06/26 23:52:25;;;;;;;8.90;3.58;;;;;;;17.90;100.00;100169.09;21076514;28;20048;-77
